SKCL/CLO METAR and TAF weather

Enter ICAO airport designator
Station Type Date Time Source
SKCL METAR 2020/09/24 12:00 UTC NOAA

SKCL 241200Z VRB02KT 9999 SCT030 SCT120 21/21 A3007 NOSIG


Station Type Date Time Source
SKCL Decoded METAR 2020/09/24 12:00 UTC NOAA

Cali / Alfonso Bonillaaragon, Colombia (SKCL) 03-33N 076-23W 969M
Sep 24, 2020 - 08:00 AM EDT / 2020.09.24 1200 UTC
Wind: Variable at 2 MPH (2 KT):0
Visibility: greater than 7 mile(s):0
Sky conditions: partly cloudy
Temperature: 69 F (21 C)
Dew Point: 69 F (21 C)
Relative Humidity: 100%
Pressure (altimeter): 30.07 in. Hg (1018 hPa)
ob: SKCL 241200Z VRB02KT 9999 SCT030 SCT120 21/21 A3007 NOSIG
cycle: 12

Station Type Date Time Source
SKCL TAF 2020/09/24 12:44 UTC NOAA

TAF SKCL 241030Z 2412/2512 04003KT 9999 SCT030 BKN120
TEMPO 2412/2414 7000 DZ SCT020 BKN080
BECMG 2415/2417 31010KT PROB40
TEMPO 2420/2423 5000 TSRA SCT017CB
BECMG 2502/2504 VRB02KT TX32/2419Z TN19/2510Z

Example: see airport list